• Join FlightAware (Why Join?)
  • Login
  • US Flag 
11:23PM EST


 

Airport Tracker/Info


-or-


 

Live Flight TrackerFlight Track Log ✈ CLX1JS ✈ 12-Oct-2011 ✈ KSEA - ELLX / LUX

Flight Track Log - Related Links

Times and Time Zones

All times are in EDT time to prevent confusion due to time zone crossing. See the CLX1JS flight status page for this flight to view local times or setup timezone preferences in your user account.

Time Position Orientation Groundspeed Altitude Reporting Facility
EDT Latitude Longitude Course Direction KTS MPH feet Rate Location/Type
07:22PM 47.4239 -122.3100 127° Southeast 151 174 1,200  Level Seattle Center
07:22PM 47.4231 -122.3083 183° South 163 188 1,200 1,320 Level Seattle Center
07:23PM 47.3800 -122.3114 174° South 163 188 2,600 1,560 Climbing Seattle Center
07:23PM 47.3700 -122.3097 174° South 163 188 2,800 900 Climbing Seattle Center
07:24PM 47.3178 -122.3019 146° Southeast 196 226 3,700 900 Climbing Seattle Center
07:25PM 47.2725 -122.2561 96° East 263 303 4,500 960 Climbing Seattle Center
07:25PM 47.2714 -122.2414 58° Northeast 270 311 4,700 2,220 Climbing Seattle Center
07:26PM 47.3128 -122.1431 North 295 339 7,200 2,400 Climbing Seattle Center
07:27PM 47.3919 -122.1267 360° North 299 344 9,600 1,860 Climbing Seattle Center
07:29PM 47.4781 -122.1264 North 314 361 11,000 1,260 Climbing Seattle Center
07:30PM 47.6058 -122.1217 North 391 450 12,200 1,800 Climbing Seattle Center
07:31PM 47.7194 -122.1156 North 410 472 14,800 2,580 Climbing Seattle Center
07:32PM 47.8372 -122.1028 North 422 486 17,500 2,280 Climbing Seattle Center
07:33PM 47.9478 -122.0864 North 435 501 19,500 1,740 Climbing Seattle Center
07:34PM 48.0747 -122.0597 17° North 466 536 21,100 1,860 Climbing Seattle Center
07:35PM 48.2319 -121.9869 59° Northeast 519 597 23,400 1,860 Climbing Seattle Center
07:36PM 48.3136 -121.7814 69° East 589 678 24,900 1,320 Climbing Seattle Center
07:37PM 48.3733 -121.5458 70° East 608 700 26,200 1,200 Climbing Seattle Center
07:38PM 48.4322 -121.2986 70° East 628 723 27,400 1,440 Climbing Seattle Center
07:39PM 48.4931 -121.0506 70° East 639 735 29,200 1,800 Climbing Seattle Center
07:40PM 48.5514 -120.8011 70° East 638 734 31,200 1,860 Climbing Seattle Center
07:41PM 48.6108 -120.5561 71° East 631 726 33,000 840 Climbing Seattle Center
07:42PM 48.6747 -120.2778 70° East 624 718 33,000 -60 Level Seattle Center
07:43PM 48.7328 -120.0294 77° East 624 718 32,900  Descending Seattle Center
07:44PM 48.7667 -119.8000 74° East 630 725 33,000  Climbing Vancouver Center
07:45PM 48.8167 -119.5333 North 630 725 33,000  Level Vancouver Center
07:45PM 48.8450 -119.5311 82° East 626 720 33,000  Level Seattle Center
07:46PM 48.8667 -119.3000 68° East 620 713 33,000  Level Vancouver Center
07:47PM 48.9333 -119.0500 72° East 620 713 33,000  Level Vancouver Center
07:48PM 48.9833 -118.8167 74° East 620 713 33,000  Level Vancouver Center
07:49PM 49.0333 -118.5500 74° East 630 725 33,000  Level Vancouver Center
07:50PM 49.0833 -118.2833 66° East 620 713 33,000  Level Vancouver Center
07:51PM 49.1500 -118.0500 73° East 620 713 33,000  Level Vancouver Center
07:52PM 49.2000 -117.8000 73° East 630 725 33,000  Level Vancouver Center
07:53PM 49.2500 -117.5500 73° East 620 713 33,000  Level Vancouver Center
07:54PM 49.3000 -117.3000 73° East 620 713 33,000  Level Vancouver Center
07:55PM 49.3500 -117.0500 74° East 620 713 33,000  Level Vancouver Center
07:56PM 49.4000 -116.7833 78° East 620 713 33,000  Level Vancouver Center
07:57PM 49.4333 -116.5333 73° East 620 713 33,000  Level Vancouver Center
07:58PM 49.4833 -116.2833 74° East 610 702 33,000  Level Vancouver Center
07:59PM 49.5333 -116.0167 77° East 610 702 33,000  Level Vancouver Center
08:00PM 49.5667 -115.7833 85° East 620 713 33,000  Level Vancouver Center
08:01PM 49.5833 -115.5000 78° East 620 713 33,000  Level Vancouver Center
08:02PM 49.6167 -115.2500 90° East 610 702 33,000 240 Level Vancouver Center
08:02PM 49.6167 -115.1500 82° East 610 702 33,400 780 Climbing Edmonton Center
08:03PM 49.6333 -114.9667 77° East 610 702 33,800 900 Climbing Vancouver Center
08:04PM 49.6667 -114.7333 90° East 620 713 34,700 720 Climbing Vancouver Center
08:04PM 49.6667 -114.6167 84° East 610 702 35,000 180 Climbing Edmonton Center
08:05PM 49.6833 -114.3833 85° East 610 702 35,000  Level Edmonton Center
08:06PM 49.7000 -114.1000 79° East 600 690 35,000  Level Edmonton Center
08:07PM 49.7333 -113.8333 84° East 610 702 35,000  Level Edmonton Center
08:08PM 49.7500 -113.5833 84° East 610 702 35,000  Level Edmonton Center
08:09PM 49.7667 -113.3167 85° East 610 702 35,000  Level Edmonton Center
08:10PM 49.7833 -113.0333 77° East 610 702 35,000  Level Edmonton Center
08:11PM 49.8167 -112.8000 84° East 600 690 35,000  Level Edmonton Center
08:12PM 49.8333 -112.5500 84° East 610 702 35,000  Level Edmonton Center
08:13PM 49.8500 -112.2833 84° East 600 690 35,000  Level Edmonton Center
08:14PM 49.8667 -112.0333 84° East 600 690 35,000  Level Edmonton Center
08:15PM 49.8833 -111.7667 82° East 600 690 35,000  Level Edmonton Center
08:16PM 49.9000 -111.5833 90° East 600 690 35,000  Level Winnipeg Center
08:16PM 49.9000 -111.5000 84° East 600 690 35,000  Level Edmonton Center
08:17PM 49.9167 -111.2500 84° East 590 679 35,000  Level Edmonton Center
08:18PM 49.9333 -110.9833 90° East 590 679 35,000  Level Edmonton Center
08:19PM 49.9333 -110.7333 77° East 590 679 35,000  Level Edmonton Center
08:20PM 49.9667 -110.5000 79° East 580 667 35,000  Level Edmonton Center
08:21PM 50.0000 -110.2333 73° East 570 656 35,000  Level Edmonton Center
08:22PM 50.0333 -110.0667 77° East 580 667 35,000  Level Winnipeg Center
08:23PM 50.0667 -109.8333 107° East 580 667 35,000  Level Winnipeg Center
08:23PM 50.0500 -109.7500 79° East 570 656 35,000  Level Edmonton Center
08:24PM 50.0833 -109.4833 77° East 570 656 35,000  Level Edmonton Center
08:25PM 50.1167 -109.2500 74° East 570 656 35,000  Level Edmonton Center
08:26PM 50.1500 -109.0667 84° East 580 667 35,000  Level Winnipeg Center
08:27PM 50.1667 -108.8333 78° East 580 667 35,000  Level Winnipeg Center
08:28PM 50.2000 -108.5833 84° East 580 667 35,000  Level Winnipeg Center
08:29PM 50.2167 -108.3500 79° East 570 656 35,000  Level Winnipeg Center
08:30PM 50.2500 -108.0833 84° East 570 656 35,000  Level Winnipeg Center
08:31PM 50.2667 -107.8333 77° East 570 656 35,000  Level Winnipeg Center
08:32PM 50.3000 -107.6000 59° Northeast 560 644 35,000  Level Winnipeg Center
08:33PM 50.3833 -107.3833 62° Northeast 560 644 35,000  Level Winnipeg Center
08:34PM 50.4500 -107.1833 64° Northeast 560 644 35,000  Level Winnipeg Center
08:35PM 50.5167 -106.9667 71° East 550 633 35,000  Level Winnipeg Center
08:36PM 50.5667 -106.7333 64° Northeast 550 633 35,000  Level Winnipeg Center
08:37PM 50.6333 -106.5167 90° East 550 633 35,000  Level Winnipeg Center
08:37PM 50.6333 -106.4500 52° Northeast 540 621 35,000  Level Edmonton Center
08:38PM 50.7000 -106.3167 62° Northeast 550 633 35,000  Level Winnipeg Center
08:39PM 50.7667 -106.1167 66° East 550 633 35,000  Level Winnipeg Center
08:40PM 50.8333 -105.8833 66° East 540 621 35,000  Level Winnipeg Center
08:41PM 50.9000 -105.6500 64° Northeast 540 621 35,000  Level Winnipeg Center
08:42PM 50.9667 -105.4333 68° East 540 621 35,000  Level Winnipeg Center
08:43PM 51.0167 -105.2333 64° Northeast 540 621 35,000  Level Winnipeg Center
08:44PM 51.0833 -105.0167 71° East 540 621 35,000  Level Winnipeg Center
08:45PM 51.1333 -104.7833 62° Northeast 540 621 35,000  Level Winnipeg Center
08:46PM 51.2000 -104.5833 65° Northeast 540 621 35,000  Level Winnipeg Center
08:47PM 51.2667 -104.3500 64° Northeast 530 610 35,000  Level Winnipeg Center
08:48PM 51.3333 -104.1333 70° East 530 610 35,000  Level Winnipeg Center
08:49PM 51.3833 -103.9167 65° Northeast 530 610 35,000  Level Winnipeg Center
08:50PM 51.4500 -103.6833 68° East 530 610 35,000  Level Winnipeg Center
08:51PM 51.5000 -103.4833 70° East 530 610 35,000  Level Winnipeg Center
08:52PM 51.5500 -103.2667 65° Northeast 530 610 35,000  Level Winnipeg Center
08:53PM 51.6167 -103.0333 68° East 530 610 35,000  Level Winnipeg Center
08:54PM 51.6667 -102.8333 69° East 530 610 35,000  Level Winnipeg Center
08:55PM 51.7167 -102.6167 63° Northeast 530 610 35,000  Level Winnipeg Center
08:56PM 51.7833 -102.4000 71° East 520 598 35,000  Level Winnipeg Center
08:57PM 51.8333 -102.1667 69° East 520 598 35,000  Level Winnipeg Center
08:58PM 51.8833 -101.9500 65° Northeast 520 598 35,000  Level Winnipeg Center
08:59PM 51.9500 -101.7167 69° East 520 598 35,000  Level Winnipeg Center
09:00PM 52.0000 -101.5000 68° East 520 598 35,000  Level Winnipeg Center
09:01PM 52.0500 -101.3000 69° East 520 598 35,000  Level Winnipeg Center
09:02PM 52.1000 -101.0833 69° East 530 610 35,000  Level Winnipeg Center
09:03PM 52.1500 -100.8667 65° Northeast 530 610 35,000  Level Winnipeg Center
09:04PM 52.2167 -100.6333 76° East 520 598 35,000  Level Winnipeg Center
09:05PM 52.2500 -100.4167 66° East 520 598 35,000  Level Winnipeg Center
09:06PM 52.3167 -100.1667 76° East 530 610 35,000  Level Winnipeg Center
09:07PM 52.3500 -99.9500 69° East 520 598 35,000  Level Winnipeg Center
09:08PM 52.4000 -99.7333 69° East 520 598 35,000  Level Winnipeg Center
09:09PM 52.4500 -99.5167 69° East 520 598 35,000  Level Winnipeg Center
09:10PM 52.5000 -99.3000 72° East 510 587 35,000  Level Winnipeg Center
09:11PM 52.5500 -99.0500 66° East 510 587 35,000  Level Winnipeg Center
09:12PM 52.6000 -98.8667 69° East 510 587 35,000  Level Winnipeg Center
09:13PM 52.6500 -98.6500 78° East 520 598 35,000  Level Winnipeg Center
09:14PM 52.6833 -98.4000 69° East 520 598 35,000  Level Winnipeg Center
09:15PM 52.7333 -98.1833 69° East 510 587 35,000  Level Winnipeg Center
09:16PM 52.7833 -97.9667 77° East 520 598 35,000  Level Winnipeg Center
09:17PM 52.8167 -97.7333 72° East 520 598 35,000  Level Winnipeg Center
09:18PM 52.8667 -97.4833 69° East 520 598 35,000  Level Winnipeg Center
09:19PM 52.9167 -97.2667 76° East 520 598 35,000  Level Winnipeg Center
09:20PM 52.9500 -97.0500 65° Northeast 510 587 35,000  Level Winnipeg Center
09:21PM 53.0167 -96.8167 83° East 520 598 35,000  Level Winnipeg Center
09:22PM 53.0333 -96.6000 71° East 520 598 35,000  Level Winnipeg Center
09:23PM 53.0833 -96.3500 69° East 520 598 35,000  Level Winnipeg Center
09:24PM 53.1333 -96.1333 77° East 510 587 35,000  Level Winnipeg Center
09:25PM 53.1667 -95.9000 69° East 510 587 35,000  Level Winnipeg Center
09:26PM 53.2167 -95.6833 72° East 510 587 35,000  Level Winnipeg Center
09:27PM 53.2667 -95.4167 75° East 520 598 35,000  Level Winnipeg Center
09:28PM 53.3000 -95.2000 70° East 520 598 35,000  Level Winnipeg Center
09:29PM 53.3500 -94.9667 75° East 520 598 35,000  Level Winnipeg Center
09:30PM 53.3833 -94.7500 76° East 520 598 35,000  Level Winnipeg Center
09:31PM 53.4167 -94.5167 90° East 510 587 35,000  Level Winnipeg Center
09:31PM 53.4167 -94.4333 63° Northeast 510 587 35,000  Level Edmonton Center
09:32PM 53.4667 -94.2667 76° East 520 598 35,000  Level Winnipeg Center
09:33PM 53.5000 -94.0333 77° East 520 598 35,000  Level Winnipeg Center
09:34PM 53.5333 -93.7833 90° East 520 598 35,000  Level Winnipeg Center
09:34PM 53.5333 -93.7333 76° East 520 598 35,000  Level Edmonton Center
09:35PM 53.5667 -93.5000 76° East 520 598 35,000  Level Edmonton Center
09:36PM 53.6000 -93.2667 77° East 520 598 35,000  Level Edmonton Center
09:37PM 53.6333 -93.0167 65° Northeast 520 598 35,000  Level Edmonton Center
09:38PM 53.6833 -92.8333 70° East 520 598 35,000  Level Winnipeg Center
09:39PM 53.7333 -92.6000 130° Southeast 520 598 35,000  Level Winnipeg Center
09:39PM 53.7000 -92.5333 63° Northeast 520 598 35,000  Level Edmonton Center
09:40PM 53.7500 -92.3667 71° East 520 598 35,000  Level Winnipeg Center
09:41PM 53.8000 -92.1167 83° East 520 598 35,000  Level Winnipeg Center
09:42PM 53.8167 -91.8833 64° Northeast 520 598 35,000  Level Winnipeg Center
09:43PM 53.8833 -91.6500 130° Southeast 530 610 35,000  Level Winnipeg Center
09:43PM 53.8667 -91.6167 67° East 520 598 35,000  Level Edmonton Center
09:44PM 53.9333 -91.3500 62° Northeast 530 610 35,000  Level Edmonton Center
09:45PM 54.0000 -91.1333 56° Northeast 540 621 35,000  Level Edmonton Center
09:46PM 54.0667 -90.9667 70° East 540 621 35,000  Level Winnipeg Center
09:47PM 54.1167 -90.7333 67° East 540 621 35,000  Level Winnipeg Center
09:47PM 54.1333 -90.6667 68° East 540 621 35,000  Level Edmonton Center
09:48PM 54.1833 -90.4500 67° East 540 621 35,000  Level Edmonton Center
09:49PM 54.2500 -90.1833 64° Northeast 540 621 35,000  Level Edmonton Center
09:50PM 54.3167 -89.9500 65° Northeast 540 621 35,000  Level Edmonton Center
09:51PM 54.3667 -89.7667 62° Northeast 540 621 35,000  Level Winnipeg Center
09:52PM 54.4333 -89.5500 120° Southeast 540 621 35,000  Level Winnipeg Center
09:52PM 54.4167 -89.5000 60° Northeast 540 621 35,000  Level Edmonton Center
09:53PM 54.5000 -89.2500 58° Northeast 540 621 35,000  Level Edmonton Center
09:54PM 54.5667 -89.0667 70° East 540 621 35,000  Level Winnipeg Center
09:55PM 54.6167 -88.8333 65° Northeast 540 621 35,000  Level Winnipeg Center
09:56PM 54.6833 -88.5833 68° East 540 621 35,000  Level Winnipeg Center
09:57PM 54.7333 -88.3667 113° Southeast 530 610 35,000  Level Winnipeg Center
09:57PM 54.7167 -88.3000 71° East 530 610 35,000  Level Edmonton Center
09:58PM 54.7667 -88.0500 64° Northeast 530 610 35,000  Level Edmonton Center
09:59PM 54.8333 -87.8167 63° Northeast 530 610 35,000  Level Edmonton Center
10:00PM 54.9000 -87.5833 69° East 530 610 35,000  Level Edmonton Center
10:01PM 54.9500 -87.3500 58° Northeast 530 610 35,000  Level Edmonton Center
10:02PM 55.0167 -87.1667 77° East 530 610 35,000  Level Winnipeg Center
10:03PM 55.0500 -86.9167 60° Northeast 540 621 35,000  Level Winnipeg Center
10:03PM 55.0667 -86.8667 69° East 530 610 35,000  Level Edmonton Center
10:04PM 55.1167 -86.6333 64° Northeast 530 610 35,000  Level Edmonton Center
10:05PM 55.1667 -86.4500 109° East 530 610 35,000  Level Winnipeg Center
10:05PM 55.1500 -86.3667 62° Northeast 530 610 35,000  Level Edmonton Center
10:06PM 55.2167 -86.1500 72° East 530 610 35,000  Level Edmonton Center
10:07PM 55.2667 -85.8833 68° East 530 610 35,000  Level Edmonton Center
10:08PM 55.3167 -85.6667 72° East 530 610 35,000  Level Edmonton Center
10:09PM 55.3667 -85.4000 68° East 530 610 35,000  Level Edmonton Center
10:11PM 55.4667 -84.9667 90° East 530 610 35,000  Level Winnipeg Center
10:11PM 55.4667 -84.9500 73° East 530 610 35,000  Level Edmonton Center
10:12PM 55.5167 -84.6667 70° East 530 610 35,000  Level Edmonton Center
10:13PM 55.5667 -84.4167 70° East 530 610 35,000  Level Edmonton Center
10:14PM 55.6167 -84.1667 70° East 540 621 35,000  Level Edmonton Center
10:15PM 55.6667 -83.9167 69° East 540 621 35,000  Level Edmonton Center
10:16PM 55.7167 -83.6833 70° East 530 610 35,000  Level Edmonton Center
10:17PM 55.7667 -83.4333 360° North 540 621 35,000  Level Edmonton Center
10:18PM 55.8333 -83.4333 102° East 540 621 35,000  Level Montreal Center
10:18PM 55.8000 -83.1500 64° Northeast 540 621 35,000  Level Edmonton Center
10:19PM 55.8667 -82.9000 77° East 530 610 35,000  Level Edmonton Center
10:20PM 55.9000 -82.6500 349° North 540 621 35,000  Level Edmonton Center
10:21PM 55.9500 -82.6667 69° East 530 610 35,000  Level Montreal Center
10:22PM 56.0000 -82.4333 71° East 540 621 35,000  Level Montreal Center
10:23PM 56.0500 -82.1667 70° East 540 621 35,000  Level Montreal Center
10:24PM 56.1000 -81.9167 96° East 540 621 35,000  Level Montreal Center
10:24PM 56.0833 -81.6167 331° Northwest 540 621 35,000  Level Edmonton Center
10:25PM 56.1333 -81.6667 90° East 540 621 35,000  Level Montreal Center
10:25PM 56.1333 -81.3667 71° East 530 610 35,000  Level Edmonton Center
10:26PM 56.1833 -81.1000 76° East 540 621 35,000  Level Edmonton Center
10:27PM 56.2167 -80.8500 76° East 540 621 35,000  Level Edmonton Center
10:28PM 56.2500 -80.6000 72° East 540 621 35,000  Level Edmonton Center
10:29PM 56.3000 -80.3167 76° East 540 621 35,000  Level Edmonton Center
10:30PM 56.3333 -80.0667 345° North 540 621 35,000  Level Edmonton Center
10:31PM 56.4000 -80.1000 71° East 530 610 35,000  Level Montreal Center
10:32PM 56.4500 -79.8333 102° East 540 621 35,000  Level Montreal Center
10:32PM 56.4167 -79.5500 71° East 540 621 35,000  Level Edmonton Center
10:33PM 56.4667 -79.2833 340° North 540 621 35,000  Level Edmonton Center
10:34PM 56.5167 -79.3167 71° East 540 621 35,000  Level Montreal Center
10:35PM 56.5667 -79.0500 76° East 540 621 35,000  Level Montreal Center
10:36PM 56.6000 -78.8000 96° East 530 610 35,000  Level Montreal Center
10:36PM 56.5833 -78.5000 345° North 540 621 35,000  Level Edmonton Center
10:37PM 56.6500 -78.5333 77° East 530 610 35,000  Level Montreal Center
10:38PM 56.6833 -78.2667 76° East 530 610 35,000  Level Montreal Center
10:39PM 56.7167 -78.0167 72° East 540 621 35,000  Level Montreal Center
10:40PM 56.7667 -77.7333 77° East 540 621 35,000  Level Montreal Center
10:41PM 56.8000 -77.4667 76° East 550 633 35,000  Level Montreal Center
10:42PM 56.8333 -77.2167 77° East 540 621 35,000  Level Montreal Center
10:43PM 56.8667 -76.9500 74° East 540 621 35,000  Level Montreal Center
10:44PM 56.9167 -76.6333 75° East 540 621 35,000  Level Montreal Center
10:45PM 56.9500 -76.4000 96° East 540 621 35,000  Level Montreal Center
10:45PM 56.9333 -76.1000 338° Northwest 540 621 35,000  Level Edmonton Center
10:46PM 57.0000 -76.1500 77° East 530 610 35,000  Level Montreal Center
10:47PM 57.0667 -75.6167 78° East 530 610 35,000  Level Montreal Center
10:48PM 57.1000 -75.3333 77° East 530 610 35,000  Level Montreal Center
10:49PM 57.1333 -75.0667 70° East 540 621 35,000  Level Montreal Center
10:50PM 57.1833 -74.8167 72° East 540 621 35,000  Level Montreal Center
10:51PM 57.2333 -74.5333 58° Northeast 540 621 35,000  Level Montreal Center
10:52PM 57.2500 -74.4833 82° East 550 633 35,000  Level Gander Center
10:52PM 57.2667 -74.2500 78° East 540 621 35,000  Level Montreal Center
10:53PM 57.3000 -73.9667 96° East 550 633 35,000  Level Montreal Center
10:54PM 57.2833 -73.6833 78° East 550 633 35,000  Level Montreal Center
10:55PM 57.3167 -73.4000 84° East 550 633 35,000  Level Montreal Center
10:56PM 57.3333 -73.1167 90° East 550 633 35,000  Level Montreal Center
10:57PM 57.3333 -72.8500 83° East 550 633 35,000  Level Montreal Center
10:58PM 57.3500 -72.6000 84° East 550 633 35,000  Level Montreal Center
10:59PM 57.3667 -72.2833 90° East 550 633 35,000  Level Montreal Center
11:00PM 57.3667 -72.0000 78° East 550 633 35,000  Level Montreal Center
11:01PM 57.4000 -71.7167 90° East 550 633 35,000  Level Montreal Center
11:02PM 57.4000 -71.4333 90° East 550 633 35,000  Level Montreal Center
11:03PM 57.4000 -71.1500 84° East 550 633 35,000  Level Montreal Center
11:04PM 57.4167 -70.8667 90° East 550 633 35,000  Level Montreal Center
11:05PM 57.4167 -70.5833 90° East 550 633 35,000  Level Montreal Center
11:06PM 57.4167 -70.3000 84° East 550 633 35,000  Level Montreal Center
11:07PM 57.4333 -70.0167 84° East 550 633 35,000  Level Montreal Center
11:08PM 57.4500 -69.7333 90° East 550 633 35,000  Level Montreal Center
11:09PM 57.4500 -69.4167 90° East 560 644 35,000  Level Montreal Center
11:10PM 57.4500 -69.1333 90° East 560 644 35,000  Level Montreal Center
11:11PM 57.4500 -68.8167 90° East 560 644 35,000  Level Montreal Center
11:12PM 57.4500 -68.5500 84° East 560 644 35,000  Level Montreal Center
11:13PM 57.4667 -68.2500 90° East 560 644 35,000  Level Montreal Center
11:14PM 57.4667 -67.9667 90° East 560 644 35,000  Level Montreal Center
11:15PM 57.4667 -67.6833 90° East 560 644 35,000  Level Montreal Center
11:16PM 57.4667 -67.6167 90° East 570 656 35,000  Level Gander Center
11:16PM 57.4667 -67.3833 90° East 560 644 35,000  Level Montreal Center
11:17PM 57.4667 -67.1000 96° East 560 644 35,000  Level Montreal Center
11:18PM 57.4500 -66.8167 84° East 560 644 35,000  Level Montreal Center
11:19PM 57.4667 -66.5333 90° East 560 644 35,000  Level Montreal Center
11:20PM 57.4667 -66.2500 95° East 560 644 35,000  Level Montreal Center
11:21PM 57.4500 -65.9333 90° East 560 644 35,000  Level Montreal Center
11:22PM 57.4500 -65.8333 90° East 570 656 35,000  Level Gander Center
11:22PM 57.4500 -65.6167 90° East 560 644 35,000  Level Montreal Center
11:23PM 57.4500 -65.3333 90° East 570 656 35,000  Level Montreal Center
11:24PM 57.4500 -65.0500 90° East 570 656 35,000  Level Montreal Center
11:25PM 57.4500 -64.9667 90° East 570 656 35,000  Level Gander Center
11:25PM 57.4500 -64.7333 96° East 560 644 35,000  Level Montreal Center
11:26PM 57.4333 -64.4500 90° East 570 656 35,000  Level Montreal Center
11:27PM 57.4333 -64.1667 90° East 570 656 35,000  Level Montreal Center
11:28PM 57.4333 -63.8833 95° East 570 656 35,000  Level Montreal Center
11:29PM 57.4167 -63.5667 90° East 570 656 35,000  Level Montreal Center
11:30PM 57.4167 -63.4833 115° Southeast 570 656 35,000  Level Gander Center
11:30PM 57.4000 -63.4167 75° East 570 656 35,000  Level Gander Center
11:30PM 57.4167 -63.3000 96° East 570 656 35,000  Level Montreal Center
11:31PM 57.4000 -63.0167 90° East 570 656 35,000  Level Montreal Center
11:32PM 57.4000 -62.8833 97° East 570 656 35,000  Level Gander Center
11:33PM 57.3833 -62.6167 96° East 570 656 35,000  Level Gander Center
11:34PM 57.3667 -62.3333 90° East 570 656 35,000  Level Gander Center
11:35PM 57.3667 -62.0167 122° Southeast 570 656 35,000  Level Gander Center
11:35PM 57.3500 -61.9667 90° East 570 656 35,000  Level Gander Center
11:36PM 57.3500 -61.7500 95° East 570 656 35,000  Level Gander Center
11:37PM 57.3333 -61.4000 98° East 570 656 35,000  Level Gander Center
11:38PM 57.3167 -61.1833 96° East 570 656 35,000  Level Gander Center
11:39PM 57.3000 -60.8833 90° East 570 656 35,000  Level Gander Center
11:39PM 57.3000 -60.8167 96° East 570 656 35,000  Level Gander Center
11:40PM 57.2833 -60.5333 90° East 570 656 35,000  Level Gander Center
11:41PM 57.2833 -60.3000 95° East 580 667 35,000  Level Gander Center
11:42PM 57.2667 -59.9833 96° East 580 667 35,000  Level Gander Center
11:43PM 57.2500 -59.7167 101° East 580 667 35,000  Level Gander Center
11:44PM 57.2167 -59.4000 90° East 580 667 35,000  Level Gander Center
11:45PM 57.2167 -59.1333 78° East 580 667 35,000  Level Gander Center
11:46PM 57.2500 -58.8500 90° East 570 656 35,000  Level Gander Center
11:46PM 57.2500 -58.7833 84° East 560 644 35,000  Level Gander Center
11:47PM 57.2667 -58.5000 67° East 560 644 35,000  Level Gander Center
11:48PM 57.3167 -58.2833 79° East 560 644 35,000  Level Gander Center
11:49PM 57.3500 -57.9667 83° East 570 656 35,000  Level Gander Center
11:50PM 57.3667 -57.7000 72° East 570 656 35,000  Level Gander Center
11:51PM 57.4167 -57.4167 84° East 560 644 35,000  Level Gander Center
11:52PM 57.4333 -57.1333 72° East 560 644 35,000  Level Gander Center
11:53PM 57.4833 -56.8500 84° East 560 644 35,000  Level Gander Center
11:54PM 57.5000 -56.5667 84° East 560 644 35,000  Level Gander Center
11:55PM 57.5167 -56.2833 78° East 550 633 35,000  Level Gander Center
11:56PM 57.5500 -56.0000 78° East 560 644 35,000  Level Gander Center
11:57PM 57.5833 -55.7167 84° East 560 644 35,000  Level Gander Center
11:58PM 57.6000 -55.4333 78° East 550 633 35,000  Level Gander Center
11:59PM 57.6333 -55.1333 77° East 550 633 35,000  Level Gander Center
12:00AM 57.6667 -54.8500 76° East 550 633 35,000  Level Gander Center
12:08AM 57.8192 -52.7677 77° East  Level FlightAware Approximate
12:16AM 57.9415 -50.5830 79° East  Level FlightAware Approximate
12:24AM 58.0530 -48.3917 81° East  Level FlightAware Approximate
12:32AM 58.3064 -46.2291 83° East  Level FlightAware Approximate
12:40AM 58.5228 -44.0377 85° East  Level FlightAware Approximate
12:48AM 58.7014 -41.8215 87° East  Level FlightAware Approximate
12:56AM 58.8416 -39.5849 89° East  Level FlightAware Approximate
01:04AM 58.9428 -37.3326 91° East  Level FlightAware Approximate
01:12AM 59.0819 -35.0802 94° East  Level FlightAware Approximate
01:20AM 59.1817 -32.8119 97° East  Level FlightAware Approximate
01:28AM 59.2418 -30.5331 99° East  Level FlightAware Approximate
01:36AM 59.0507 -28.4431 101° East  Level FlightAware Approximate
01:44AM 58.9024 -26.1952 103° East  Level FlightAware Approximate
01:52AM 58.7154 -23.9690 106° East  Level FlightAware Approximate
02:00AM 58.4904 -21.7689 108° East  Level FlightAware Approximate
02:08AM 58.9586 -19.7851 114° Southeast  Level FlightAware Approximate
02:16AM 58.5323 -17.6891 116° Southeast  Level FlightAware Approximate
02:24AM 58.0727 -15.6455 119° Southeast  Level FlightAware Approximate
02:32AM 57.5813 -13.6556 121° Southeast  Level FlightAware Approximate
02:40AM 57.0594 -11.7203 124° Southeast  Level FlightAware Approximate
02:48AM 56.5033 -9.8454 127° Southeast  Level FlightAware Approximate
02:56AM 55.9266 -8.0188 131° Southeast  Level FlightAware Approximate
03:04AM 55.3216 -6.2493 138° Southeast  Level FlightAware Approximate
03:12AM 54.6918 -4.5340 155° Southeast  Level FlightAware Approximate
03:19AM 53.5829 -3.6663 134° Southeast 510 587 39,000  Level FlightAware ADS-B
03:19AM 53.5586 -3.6232 133° Southeast 510 587 39,000  Level FlightAware ADS-B
03:19AM 53.5316 -3.5753 134° Southeast 510 587 39,000  Level FlightAware ADS-B
03:20AM 53.5051 -3.5284 134° Southeast 509 586 39,000  Level FlightAware ADS-B
03:20AM 53.4742 -3.4739 134° Southeast 509 586 39,000  Level FlightAware ADS-B
03:20AM 53.4497 -3.4308 134° Southeast 509 586 39,000  Level FlightAware ADS-B
03:20AM 53.4226 -3.3832 134° Southeast 509 586 39,000  Level FlightAware ADS-B
03:21AM 53.3884 -3.3231 134° Southeast 510 587 39,000  Level FlightAware ADS-B
03:21AM 53.3605 -3.2742 134° Southeast 510 587 39,000  Level FlightAware ADS-B
03:21AM 53.3333 -3.2268 134° Southeast 511 588 39,000  Level FlightAware ADS-B
03:22AM 53.3081 -3.1830 134° Southeast 511 588 39,000  Level FlightAware ADS-B
03:22AM 53.2835 -3.1400 134° Southeast 512 589 39,000  Level FlightAware ADS-B
03:22AM 53.2566 -3.0935 134° Southeast 511 588 39,000  Level FlightAware ADS-B
03:22AM 53.2207 -3.0310 134° Southeast 512 589 39,000  Level FlightAware ADS-B
03:23AM 53.1946 -2.9860 134° Southeast 512 589 39,000  Level FlightAware ADS-B
03:23AM 53.1427 -2.8966 134° Southeast 513 590 39,000  Level FlightAware ADS-B
03:24AM 53.1109 -2.8421 134° Southeast 513 590 39,000  Level FlightAware ADS-B
03:24AM 53.0836 -2.7952 134° Southeast 513 590 39,000  Level FlightAware ADS-B
03:24AM 53.0291 -2.7019 134° Southeast 513 590 39,000  Level FlightAware ADS-B
03:25AM 53.0021 -2.6560 134° Southeast 513 590 39,000  Level FlightAware ADS-B
03:25AM 52.9767 -2.6128 134° Southeast 513 590 39,000  Level FlightAware ADS-B
03:25AM 52.9366 -2.5446 134° Southeast 513 590 39,000  Level FlightAware ADS-B
03:26AM 52.9106 -2.5006 134° Southeast 513 590 39,000  Level FlightAware ADS-B
03:26AM 52.8841 -2.4558 134° Southeast 513 590 39,000  Level FlightAware ADS-B
03:26AM 52.8493 -2.3971 134° Southeast 513 590 39,000  Level FlightAware ADS-B
03:26AM 52.8233 -2.3534 134° Southeast 513 590 39,000  Level FlightAware ADS-B
03:27AM 52.7856 -2.2899 135° Southeast 512 589 39,000  Level FlightAware ADS-B
03:27AM 52.7605 -2.2478 135° Southeast 512 589 39,000  Level FlightAware ADS-B
03:27AM 52.7315 -2.1992 135° Southeast 511 588 39,000  Level FlightAware ADS-B
03:28AM 52.7056 -2.1561 135° Southeast 511 588 39,000  Level FlightAware ADS-B
03:28AM 52.6784 -2.1108 135° Southeast 512 589 39,000  Level FlightAware ADS-B
03:28AM 52.6529 -2.0683 135° Southeast 512 589 39,000  Level FlightAware ADS-B
03:28AM 52.6265 -2.0245 135° Southeast 511 588 39,000  Level FlightAware ADS-B
03:29AM 52.6010 -1.9823 135° Southeast 512 589 39,000  Level FlightAware ADS-B
03:29AM 52.5759 -1.9407 135° Southeast 513 590 39,000  Level FlightAware ADS-B
03:29AM 52.5503 -1.8984 135° Southeast 513 590 39,000  Level FlightAware ADS-B
03:29AM 52.5249 -1.8565 135° Southeast 513 590 39,000  Level FlightAware ADS-B
03:30AM 52.4994 -1.8145 135° Southeast 513 590 39,000  Level FlightAware ADS-B
03:30AM 52.4727 -1.7706 135° Southeast 513 590 39,000  Level FlightAware ADS-B
03:30AM 52.4466 -1.7277 135° Southeast 514 592 39,000  Level FlightAware ADS-B
03:31AM 52.4164 -1.6783 135° Southeast 514 592 39,000  Level FlightAware ADS-B
03:31AM 52.3894 -1.6341 135° Southeast 515 593 39,000  Level FlightAware ADS-B
03:31AM 52.3591 -1.5848 135° Southeast 515 593 39,000  Level FlightAware ADS-B
03:31AM 52.3288 -1.5354 135° Southeast 515 593 39,000  Level FlightAware ADS-B
03:32AM 52.2975 -1.4846 134° Southeast 517 595 39,000  Level FlightAware ADS-B
03:32AM 52.2659 -1.4312 130° Southeast 517 595 39,000  Level FlightAware ADS-B
03:32AM 52.2424 -1.3849 126° Southeast 515 593 39,000  Level FlightAware ADS-B
03:33AM 52.2162 -1.3252 122° Southeast 514 592 39,000  Level FlightAware ADS-B
03:33AM 52.1971 -1.2747 121° Southeast 513 590 39,000  Level FlightAware ADS-B
03:33AM 52.1757 -1.2177 121° Southeast 514 592 39,000  Level FlightAware ADS-B
03:33AM 52.1569 -1.1674 121° Southeast 513 590 39,000  Level FlightAware ADS-B
03:34AM 52.1375 -1.1153 122° Southeast 514 592 39,000  Level FlightAware ADS-B
03:34AM 52.1174 -1.0619 121° Southeast 515 593 39,000  Level FlightAware ADS-B
03:34AM 52.0985 -1.0115 121° Southeast 515 593 39,000  Level FlightAware ADS-B
03:34AM 52.0795 -0.9610 122° Southeast 516 594 39,000  Level FlightAware ADS-B
03:35AM 52.0604 -0.9105 121° Southeast 517 595 39,000  Level FlightAware ADS-B
03:35AM 52.0415 -0.8604 122° Southeast 518 596 39,000  Level FlightAware ADS-B
03:35AM 52.0195 -0.8026 122° Southeast 520 598 39,000  Level FlightAware ADS-B
03:35AM 52.0002 -0.7520 122° Southeast 520 598 39,000  Level FlightAware ADS-B
03:36AM 51.9793 -0.6972 122° Southeast 521 600 39,000  Level FlightAware ADS-B
03:36AM 51.9599 -0.6465 122° Southeast 521 600 39,000  Level FlightAware ADS-B
03:36AM 51.9401 -0.5949 122° Southeast 522 601 39,000  Level FlightAware ADS-B
03:37AM 51.9192 -0.5403 122° Southeast 523 602 39,000  Level FlightAware ADS-B
03:37AM 51.8988 -0.4872 122° Southeast 523 602 39,000  Level FlightAware ADS-B
03:37AM 51.8785 -0.4346 122° Southeast 523 602 39,000  Level FlightAware ADS-B
03:37AM 51.8578 -0.3810 122° Southeast 525 604 39,000  Level FlightAware ADS-B
03:38AM 51.8383 -0.3305 122° Southeast 525 604 39,000  Level FlightAware ADS-B
03:38AM 51.8188 -0.2804 122° Southeast 526 605 39,000  Level FlightAware ADS-B
03:38AM 51.7991 -0.2296 122° Southeast 527 606 39,000  Level FlightAware ADS-B
03:38AM 51.7788 -0.1776 122° Southeast 527 606 39,000  Level FlightAware ADS-B
03:39AM 51.7572 -0.1221 122° Southeast 527 606 39,000  Level FlightAware ADS-B
03:39AM 51.7376 -0.0716 122° Southeast 528 608 39,000  Level FlightAware ADS-B
03:39AM 51.7173 -0.0198 122° Southeast 529 609 39,000  Level FlightAware ADS-B
03:39AM 51.6978 0.0300 122° Southeast 529 609 39,000  Level FlightAware ADS-B
03:40AM 51.6780 0.0802 122° Southeast 530 610 39,000  Level FlightAware ADS-B
03:40AM 51.6580 0.1310 122° Southeast 530 610 39,000  Level FlightAware ADS-B
03:40AM 51.6377 0.1826 122° Southeast 530 610 39,000  Level FlightAware ADS-B
03:40AM 51.6177 0.2334 122° Southeast 531 611 39,000  Level FlightAware ADS-B
03:41AM 51.5925 0.2972 123° Southeast 532 612 39,000  Level FlightAware ADS-B
03:41AM 51.5722 0.3484 123° Southeast 532 612 39,000  Level FlightAware ADS-B
03:41AM 51.5511 0.4012 123° Southeast 533 613 39,000  Level FlightAware ADS-B
03:42AM 51.5288 0.4574 120° Southeast 533 613 39,000  Level FlightAware ADS-B
03:42AM 51.5106 0.5089 115° Southeast 529 609 39,000  Level FlightAware ADS-B
03:42AM 51.4947 0.5632 111° Southeast 524 603 39,000  Level FlightAware ADS-B
03:42AM 51.4805 0.6227 107° East 521 600 39,000  Level FlightAware ADS-B
03:43AM 51.4700 0.6784 106° East 517 595 39,000  Level FlightAware ADS-B
03:43AM 51.4587 0.7408 106° East 518 596 39,000  Level FlightAware ADS-B
03:43AM 51.4478 0.8006 106° East 518 596 39,000  Level FlightAware ADS-B
03:43AM 51.4364 0.8634 106° East 518 596 39,000  Level FlightAware ADS-B
03:44AM 51.4259 0.9211 106° East 518 596 39,000  Level FlightAware ADS-B
03:44AM 51.4158 0.9764 106° East 518 596 39,000  Level FlightAware ADS-B
03:44AM 51.4048 1.0366 106° East 518 596 39,000  Level FlightAware ADS-B
03:45AM 51.3936 1.0971 106° East 519 597 39,000  Level FlightAware ADS-B
03:45AM 51.3833 1.1533 107° East 519 597 39,000  Level FlightAware ADS-B
03:45AM 51.3715 1.2156 109° East 521 600 39,000  Level FlightAware ADS-B
03:45AM 51.3571 1.2810 112° Southeast 523 602 39,000  Level FlightAware ADS-B
03:46AM 51.3422 1.3402 114° Southeast 525 604 39,000  Level FlightAware ADS-B
03:46AM 51.3232 1.4088 114° Southeast 527 606 39,000  Level FlightAware ADS-B
03:46AM 51.3073 1.4655 114° Southeast 528 608 39,000  Level FlightAware ADS-B
03:46AM 51.2920 1.5197 114° Southeast 529 609 39,000  Level FlightAware ADS-B
03:47AM 51.2296 1.7393 114° Southeast 528 608 39,000  Level FlightAware ADS-B
03:48AM 51.1723 1.9404 115° Southeast 528 608 39,000  Level FlightAware ADS-B
03:49AM 51.1382 2.0592 115° Southeast 526 605 39,000  Level FlightAware ADS-B
03:50AM 51.1055 2.1725 115° Southeast 526 605 39,000  Level FlightAware ADS-B
03:50AM 51.0746 2.2790 115° Southeast 526 605 39,000  Level FlightAware ADS-B
03:50AM 51.0574 2.3384 115° Southeast 519 597 39,000  Level FlightAware ADS-B
03:51AM 51.0413 2.3932 115° Southeast 515 593 39,000  Level FlightAware ADS-B
03:51AM 51.0156 2.4812 115° Southeast 514 592 39,000  Level FlightAware ADS-B
03:51AM 50.9998 2.5350 115° Southeast 514 592 39,000  Level FlightAware ADS-B
03:52AM 50.9821 2.5952 115° Southeast 512 589 39,000  Level FlightAware ADS-B
03:52AM 50.9308 2.7684 115° Southeast 507 583 39,000  Level FlightAware ADS-B
03:53AM 50.9122 2.8310 115° Southeast 506 582 39,000 -1,020 Level FlightAware ADS-B
03:53AM 50.8763 2.9514 106° East 507 583 38,100 -1,500 Descending FlightAware ADS-B
04:01AM 50.5883 4.4573 131° Southeast  Level FlightAware Approximate
04:09AM 49.8205 5.8320 130° Southeast  Level FlightAware Approximate
04:17AM 49.6167 6.2000 37° Northeast  Level FlightAware Approximate
04:25AM 50.5446 7.3053 218° Southwest  Level Estimated
04:33AM 49.6167 6.2000 218° Southwest  Level FlightAware Approximate